AFL9044 ULMM-UACC
Flight info
| Callsign | AFL9044 |
|---|---|
| Flight time | N/A |
| Altitude | 37000 |
| Route | LOPRA T822 LIKPA T762 BASEG N987 KTU N170 KOLUR |
| Aircraft | B77W/H-SDE1E2E3FGHIJ2J3J4J5M1RWXY/LB1D1 |
Departure
| Time | 2026-05-05 09:59 |
|---|---|
| Airport | Emperor Nicholas II Murmansk Airport (ULMM) |
Arrival
| Time | N/A |
|---|---|
| Airport | Nursultan Nazarbayev International Airport (UACC) |
| Time | Latitude | Longitude | Altitude | Speed | Heading |
|---|---|---|---|---|---|
| 2026-05-05 09:35 | 68.78471 | 32.75574 | 275 ft | 0 kts | 327° |
| 2026-05-05 09:50 | 68.78458 | 32.75599 | 277 ft | 2 kts | 313° |
| 2026-05-05 09:51 | 68.78439 | 32.75659 | 280 ft | 5 kts | 315° |
| 2026-05-05 09:51 | 68.78414 | 32.75720 | 281 ft | 3 kts | 325° |
| 2026-05-05 09:51 | 68.78413 | 32.75721 | 280 ft | 0 kts | 325° |
| 2026-05-05 09:53 | 68.78414 | 32.75721 | 275 ft | 0 kts | 325° |
| 2026-05-05 09:53 | 68.78417 | 32.75702 | 277 ft | 3 kts | 298° |
| 2026-05-05 09:53 | 68.78411 | 32.75585 | 275 ft | 10 kts | 249° |
| 2026-05-05 09:53 | 68.78362 | 32.75365 | 275 ft | 15 kts | 238° |
| 2026-05-05 09:54 | 68.78354 | 32.75328 | 275 ft | 0 kts | 241° |
| 2026-05-05 09:54 | 68.78351 | 32.75311 | 275 ft | 4 kts | 241° |
| 2026-05-05 09:54 | 68.78320 | 32.75169 | 276 ft | 11 kts | 238° |
| 2026-05-05 09:55 | 68.78318 | 32.74978 | 283 ft | 11 kts | 309° |
| 2026-05-05 09:55 | 68.78395 | 32.74825 | 276 ft | 17 kts | 328° |
| 2026-05-05 09:55 | 68.78514 | 32.74619 | 274 ft | 23 kts | 328° |
| 2026-05-05 09:55 | 68.78664 | 32.74361 | 276 ft | 27 kts | 328° |
| 2026-05-05 09:56 | 68.78829 | 32.74047 | 273 ft | 29 kts | 324° |
| 2026-05-05 09:56 | 68.78998 | 32.73732 | 271 ft | 29 kts | 327° |
| 2026-05-05 09:56 | 68.79105 | 32.73553 | 272 ft | 11 kts | 315° |
| 2026-05-05 09:56 | 68.79109 | 32.73518 | 272 ft | 1 kts | 272° |
| 2026-05-05 09:57 | 68.79108 | 32.73511 | 272 ft | 0 kts | 269° |
| 2026-05-05 09:57 | 68.79108 | 32.73524 | 272 ft | 1 kts | 256° |
| 2026-05-05 09:57 | 68.79104 | 32.73534 | 272 ft | 1 kts | 193° |
| 2026-05-05 09:57 | 68.79101 | 32.73536 | 272 ft | 2 kts | 178° |
| 2026-05-05 09:58 | 68.79048 | 32.73574 | 272 ft | 13 kts | 147° |
| 2026-05-05 09:58 | 68.78913 | 32.73837 | 273 ft | 50 kts | 146° |
| 2026-05-05 09:58 | 68.78331 | 32.74919 | 278 ft | 151 kts | 146° |
| 2026-05-05 09:58 | 68.77265 | 32.77073 | 653 ft | 212 kts | 143° |
| 2026-05-05 09:59 | 68.76119 | 32.79585 | 2211 ft | 208 kts | 128° |
| 2026-05-05 09:59 | 68.75110 | 32.82807 | 2885 ft | 235 kts | 127° |
| 2026-05-05 09:59 | 68.74018 | 32.86306 | 3635 ft | 242 kts | 127° |
| 2026-05-05 09:59 | 68.72913 | 32.89814 | 4683 ft | 242 kts | 128° |
| 2026-05-05 10:00 | 68.71798 | 32.93343 | 5596 ft | 246 kts | 128° |
| 2026-05-05 10:00 | 68.70659 | 32.96911 | 6440 ft | 251 kts | 128° |
| 2026-05-05 10:00 | 68.69500 | 33.00544 | 7331 ft | 253 kts | 128° |
| 2026-05-05 10:00 | 68.68324 | 33.04214 | 8178 ft | 257 kts | 129° |
| 2026-05-05 10:01 | 68.67156 | 33.07850 | 9125 ft | 257 kts | 129° |
| 2026-05-05 10:01 | 68.65977 | 33.11500 | 9944 ft | 256 kts | 129° |
| 2026-05-05 10:01 | 68.64774 | 33.15214 | 10658 ft | 263 kts | 129° |
| 2026-05-05 10:01 | 68.63512 | 33.19113 | 10997 ft | 284 kts | 130° |
| 2026-05-05 10:02 | 68.62074 | 33.23139 | 11273 ft | 308 kts | 135° |
| 2026-05-05 10:02 | 68.60433 | 33.27295 | 11433 ft | 335 kts | 136° |
| 2026-05-05 10:02 | 68.58659 | 33.31721 | 11871 ft | 351 kts | 136° |
| 2026-05-05 10:02 | 68.56867 | 33.36232 | 12714 ft | 357 kts | 136° |
| 2026-05-05 10:03 | 68.55021 | 33.40909 | 13714 ft | 357 kts | 136° |
| 2026-05-05 10:03 | 68.53203 | 33.45520 | 14699 ft | 355 kts | 137° |
| 2026-05-05 10:03 | 68.51422 | 33.50205 | 15569 ft | 360 kts | 135° |
| 2026-05-05 10:03 | 68.49645 | 33.55093 | 16361 ft | 364 kts | 135° |
| 2026-05-05 10:04 | 68.47881 | 33.60007 | 17149 ft | 370 kts | 135° |
| 2026-05-05 10:04 | 68.46052 | 33.65085 | 17800 ft | 378 kts | 136° |
| 2026-05-05 10:04 | 68.44196 | 33.70207 | 18448 ft | 384 kts | 136° |
| 2026-05-05 10:04 | 68.42298 | 33.75414 | 19081 ft | 390 kts | 136° |
| 2026-05-05 10:05 | 68.40371 | 33.80673 | 19730 ft | 395 kts | 136° |
| 2026-05-05 10:05 | 68.38412 | 33.85999 | 20336 ft | 401 kts | 136° |
| 2026-05-05 10:05 | 68.36428 | 33.91373 | 20940 ft | 407 kts | 136° |
| 2026-05-05 10:05 | 68.34410 | 33.96824 | 21502 ft | 412 kts | 136° |
| 2026-05-05 10:06 | 68.32363 | 34.02342 | 22152 ft | 416 kts | 136° |
| 2026-05-05 10:06 | 68.31006 | 34.05993 | 22590 ft | 419 kts | 136° |
| 2026-05-05 10:06 | 68.28927 | 34.11573 | 23185 ft | 422 kts | 137° |
| 2026-05-05 10:06 | 68.26832 | 34.17183 | 23645 ft | 428 kts | 137° |
| 2026-05-05 10:07 | 68.24701 | 34.22873 | 24089 ft | 433 kts | 137° |
| 2026-05-05 10:07 | 68.22552 | 34.28592 | 24557 ft | 437 kts | 137° |
| 2026-05-05 10:07 | 68.20375 | 34.34370 | 25003 ft | 441 kts | 137° |
| 2026-05-05 10:07 | 68.18176 | 34.40200 | 25426 ft | 446 kts | 137° |
| 2026-05-05 10:08 | 68.15954 | 34.46077 | 25834 ft | 451 kts | 137° |
| 2026-05-05 10:08 | 68.13705 | 34.52011 | 26250 ft | 455 kts | 137° |
| 2026-05-05 10:08 | 68.11437 | 34.57982 | 26649 ft | 460 kts | 137° |
| 2026-05-05 10:08 | 68.09145 | 34.63998 | 27042 ft | 464 kts | 138° |
| 2026-05-05 10:09 | 68.06823 | 34.70078 | 27409 ft | 468 kts | 138° |
| 2026-05-05 10:09 | 68.04486 | 34.76178 | 27787 ft | 472 kts | 138° |
| 2026-05-05 10:09 | 68.02120 | 34.82337 | 28129 ft | 476 kts | 138° |
| 2026-05-05 10:09 | 67.99740 | 34.88510 | 28487 ft | 479 kts | 138° |
| 2026-05-05 10:10 | 67.97341 | 34.94717 | 28817 ft | 483 kts | 139° |
| 2026-05-05 10:10 | 67.94946 | 35.00893 | 29126 ft | 486 kts | 139° |
| 2026-05-05 10:10 | 67.92501 | 35.07178 | 29447 ft | 489 kts | 139° |
| 2026-05-05 10:10 | 67.90056 | 35.13447 | 29758 ft | 489 kts | 139° |
| 2026-05-05 10:11 | 67.87598 | 35.19729 | 30090 ft | 490 kts | 139° |
| 2026-05-05 10:11 | 67.85145 | 35.25980 | 30440 ft | 490 kts | 139° |
| 2026-05-05 10:11 | 67.82680 | 35.32240 | 30759 ft | 490 kts | 139° |
| 2026-05-05 10:11 | 67.80210 | 35.38494 | 31071 ft | 491 kts | 140° |
| 2026-05-05 10:12 | 67.77743 | 35.44721 | 31368 ft | 491 kts | 140° |
| 2026-05-05 10:12 | 67.75261 | 35.50964 | 31679 ft | 492 kts | 140° |
| 2026-05-05 10:12 | 67.72774 | 35.57203 | 31965 ft | 493 kts | 140° |
| 2026-05-05 10:12 | 67.70312 | 35.63358 | 32255 ft | 494 kts | 140° |
| 2026-05-05 10:13 | 67.67811 | 35.69592 | 32543 ft | 494 kts | 140° |
| 2026-05-05 10:13 | 67.65305 | 35.75820 | 32835 ft | 495 kts | 140° |
| 2026-05-05 10:13 | 67.62802 | 35.82021 | 33115 ft | 495 kts | 141° |
| 2026-05-05 10:13 | 67.60509 | 35.87686 | 33354 ft | 496 kts | 141° |
| 2026-05-05 10:14 | 67.57987 | 35.93898 | 33582 ft | 497 kts | 141° |
| 2026-05-05 10:14 | 67.55463 | 36.00099 | 33823 ft | 497 kts | 141° |
| 2026-05-05 10:14 | 67.52935 | 36.06288 | 34052 ft | 497 kts | 141° |
| 2026-05-05 10:14 | 67.50437 | 36.12385 | 34260 ft | 497 kts | 141° |
| 2026-05-05 10:15 | 67.47902 | 36.18554 | 34479 ft | 497 kts | 141° |
| 2026-05-05 10:15 | 67.45371 | 36.24691 | 34685 ft | 498 kts | 141° |
| 2026-05-05 10:15 | 67.42838 | 36.30819 | 34889 ft | 498 kts | 141° |
| 2026-05-05 10:15 | 67.40293 | 36.36955 | 35084 ft | 498 kts | 141° |
| 2026-05-05 10:16 | 67.37744 | 36.43081 | 35280 ft | 498 kts | 141° |
| 2026-05-05 10:16 | 67.35188 | 36.49205 | 35465 ft | 498 kts | 141° |
| 2026-05-05 10:16 | 67.32633 | 36.55310 | 35653 ft | 498 kts | 141° |
| 2026-05-05 10:16 | 67.30108 | 36.61323 | 35821 ft | 499 kts | 141° |
| 2026-05-05 10:17 | 67.27555 | 36.67386 | 36011 ft | 499 kts | 142° |
| 2026-05-05 10:17 | 67.24993 | 36.73453 | 36166 ft | 499 kts | 142° |
| 2026-05-05 10:17 | 67.22431 | 36.79500 | 36307 ft | 501 kts | 142° |
| 2026-05-05 10:17 | 67.19847 | 36.85579 | 36342 ft | 502 kts | 142° |
| 2026-05-05 10:18 | 67.14683 | 36.97677 | 36380 ft | 501 kts | 142° |
| 2026-05-05 10:18 | 67.09521 | 37.09704 | 36382 ft | 499 kts | 142° |
| 2026-05-05 10:19 | 67.04404 | 37.21548 | 36380 ft | 497 kts | 142° |
| 2026-05-05 10:19 | 66.99262 | 37.33378 | 36390 ft | 497 kts | 142° |
| 2026-05-05 10:20 | 66.94109 | 37.45165 | 36387 ft | 497 kts | 142° |
| 2026-05-05 10:20 | 66.88936 | 37.56927 | 36394 ft | 499 kts | 143° |
| 2026-05-05 10:21 | 66.83748 | 37.68657 | 36386 ft | 500 kts | 143° |
| 2026-05-05 10:21 | 66.78521 | 37.80414 | 36378 ft | 502 kts | 143° |
| 2026-05-05 10:22 | 66.73304 | 37.92063 | 36393 ft | 503 kts | 143° |
| 2026-05-05 10:22 | 66.68050 | 38.03719 | 36389 ft | 504 kts | 143° |
| 2026-05-05 10:23 | 66.62772 | 38.15366 | 36386 ft | 504 kts | 143° |
| 2026-05-05 10:23 | 66.57477 | 38.26990 | 36379 ft | 504 kts | 143° |
| 2026-05-05 10:24 | 66.52180 | 38.38550 | 36379 ft | 504 kts | 143° |
| 2026-05-05 10:24 | 66.46904 | 38.49996 | 36382 ft | 504 kts | 144° |
| 2026-05-05 10:25 | 66.41599 | 38.61439 | 36378 ft | 503 kts | 144° |
| 2026-05-05 10:25 | 66.36290 | 38.72824 | 36383 ft | 503 kts | 144° |
| 2026-05-05 10:26 | 66.30966 | 38.84175 | 36385 ft | 503 kts | 144° |
| 2026-05-05 10:26 | 66.25642 | 38.95461 | 36381 ft | 503 kts | 144° |
| 2026-05-05 10:27 | 66.20336 | 39.06646 | 36378 ft | 503 kts | 144° |
| 2026-05-05 10:27 | 66.14998 | 39.17842 | 36381 ft | 503 kts | 144° |
| 2026-05-05 10:28 | 66.09648 | 39.28951 | 36376 ft | 503 kts | 145° |
| 2026-05-05 10:28 | 66.04261 | 39.39948 | 36382 ft | 503 kts | 145° |
| 2026-05-05 10:29 | 65.98860 | 39.50924 | 36383 ft | 503 kts | 145° |
| 2026-05-05 10:29 | 65.93499 | 39.61783 | 36386 ft | 503 kts | 146° |
| 2026-05-05 10:30 | 65.88154 | 39.72880 | 36393 ft | 504 kts | 143° |
| 2026-05-05 10:30 | 65.82883 | 39.84380 | 36399 ft | 505 kts | 143° |
| 2026-05-05 10:31 | 65.77671 | 39.95713 | 36403 ft | 505 kts | 143° |
| 2026-05-05 10:31 | 65.72396 | 40.07016 | 36419 ft | 505 kts | 144° |
| 2026-05-05 10:32 | 65.67101 | 40.18248 | 36416 ft | 505 kts | 144° |
| 2026-05-05 10:32 | 65.61798 | 40.29436 | 36409 ft | 505 kts | 144° |
| 2026-05-05 10:33 | 65.56515 | 40.40524 | 36404 ft | 505 kts | 144° |
| 2026-05-05 10:33 | 65.51174 | 40.51673 | 36411 ft | 505 kts | 144° |
| 2026-05-05 10:34 | 65.45881 | 40.62662 | 36413 ft | 505 kts | 145° |
| 2026-05-05 10:34 | 65.40555 | 40.73657 | 36411 ft | 504 kts | 145° |
| 2026-05-05 10:35 | 65.35221 | 40.84607 | 36417 ft | 504 kts | 145° |
| 2026-05-05 10:35 | 65.29886 | 40.95501 | 36418 ft | 504 kts | 145° |
| 2026-05-05 10:36 | 65.24548 | 41.06348 | 36417 ft | 503 kts | 145° |
| 2026-05-05 10:36 | 65.19242 | 41.17123 | 36420 ft | 503 kts | 145° |
| 2026-05-05 10:37 | 65.13945 | 41.28037 | 36423 ft | 503 kts | 145° |
| 2026-05-05 10:37 | 65.08638 | 41.38929 | 36434 ft | 503 kts | 145° |
| 2026-05-05 10:38 | 65.03340 | 41.49714 | 36432 ft | 502 kts | 145° |
| 2026-05-05 10:38 | 64.98030 | 41.60464 | 36441 ft | 502 kts | 146° |
| 2026-05-05 10:39 | 64.92877 | 41.71479 | 36435 ft | 504 kts | 142° |
| 2026-05-05 10:39 | 64.87843 | 41.82963 | 36440 ft | 503 kts | 142° |
| 2026-05-05 10:40 | 64.82797 | 41.94352 | 36438 ft | 502 kts | 142° |
| 2026-05-05 10:40 | 64.77686 | 42.05493 | 36450 ft | 500 kts | 144° |
| 2026-05-05 10:41 | 64.72439 | 42.16212 | 36446 ft | 499 kts | 145° |
| 2026-05-05 10:41 | 64.67196 | 42.26853 | 36450 ft | 499 kts | 145° |
| 2026-05-05 10:42 | 64.59377 | 42.42799 | 36455 ft | 500 kts | 145° |
| 2026-05-05 10:43 | 64.54137 | 42.53441 | 36457 ft | 500 kts | 145° |
| 2026-05-05 10:43 | 64.48883 | 42.64048 | 36460 ft | 500 kts | 145° |
| 2026-05-05 10:44 | 64.43608 | 42.74643 | 36458 ft | 501 kts | 145° |
| 2026-05-05 10:44 | 64.38326 | 42.85184 | 36461 ft | 501 kts | 145° |
| 2026-05-05 10:45 | 64.33067 | 42.95627 | 36482 ft | 502 kts | 145° |
| 2026-05-05 10:45 | 64.27761 | 43.06119 | 36478 ft | 503 kts | 145° |
| 2026-05-05 10:46 | 64.22444 | 43.16584 | 36480 ft | 503 kts | 145° |
| 2026-05-05 10:46 | 64.17195 | 43.27239 | 36478 ft | 508 kts | 139° |
| 2026-05-05 10:47 | 64.12842 | 43.40171 | 36482 ft | 517 kts | 126° |
| 2026-05-05 10:47 | 64.09553 | 43.54924 | 36490 ft | 522 kts | 120° |
| 2026-05-05 10:48 | 64.06451 | 43.69931 | 36485 ft | 522 kts | 120° |
| 2026-05-05 10:48 | 64.03322 | 43.84754 | 36487 ft | 521 kts | 120° |
| 2026-05-05 10:49 | 64.00115 | 43.99609 | 36483 ft | 521 kts | 121° |
| 2026-05-05 10:49 | 63.96891 | 44.14385 | 36493 ft | 520 kts | 121° |
| 2026-05-05 10:50 | 63.93655 | 44.29125 | 36492 ft | 520 kts | 121° |
| 2026-05-05 10:50 | 63.90426 | 44.43750 | 36489 ft | 520 kts | 121° |
| 2026-05-05 10:51 | 63.87166 | 44.58417 | 36491 ft | 520 kts | 121° |
| 2026-05-05 10:51 | 63.83892 | 44.73044 | 36492 ft | 520 kts | 121° |
| 2026-05-05 10:52 | 63.80599 | 44.87656 | 36495 ft | 520 kts | 121° |
| 2026-05-05 10:52 | 63.77320 | 45.02111 | 36488 ft | 520 kts | 121° |
| 2026-05-05 10:53 | 63.74012 | 45.16609 | 36506 ft | 520 kts | 121° |
| 2026-05-05 10:53 | 63.70595 | 45.30958 | 36500 ft | 516 kts | 127° |
| 2026-05-05 10:54 | 63.66339 | 45.43799 | 36496 ft | 508 kts | 136° |
| 2026-05-05 10:54 | 63.62426 | 45.53678 | 36498 ft | 508 kts | 137° |
| 2026-05-05 10:55 | 63.57723 | 45.65550 | 36497 ft | 508 kts | 136° |
| 2026-05-05 10:55 | 63.53037 | 45.77452 | 36498 ft | 509 kts | 136° |
| 2026-05-05 10:56 | 63.48351 | 45.89347 | 36500 ft | 509 kts | 136° |
| 2026-05-05 10:56 | 63.43654 | 46.01207 | 36502 ft | 509 kts | 136° |
| 2026-05-05 10:57 | 63.38944 | 46.13029 | 36505 ft | 509 kts | 137° |
| 2026-05-05 10:57 | 63.34248 | 46.24746 | 36505 ft | 510 kts | 137° |
| 2026-05-05 10:58 | 63.29505 | 46.36521 | 36509 ft | 510 kts | 137° |
| 2026-05-05 10:58 | 63.24760 | 46.48239 | 36506 ft | 510 kts | 137° |
| 2026-05-05 10:59 | 63.20028 | 46.59863 | 36511 ft | 510 kts | 137° |
| 2026-05-05 10:59 | 63.15253 | 46.71534 | 36507 ft | 510 kts | 137° |
| 2026-05-05 11:00 | 63.10476 | 46.83153 | 36509 ft | 510 kts | 137° |
| 2026-05-05 11:00 | 63.05687 | 46.94731 | 36507 ft | 510 kts | 137° |
| 2026-05-05 11:01 | 63.00892 | 47.06273 | 36507 ft | 510 kts | 137° |
| 2026-05-05 11:01 | 62.96121 | 47.17699 | 36510 ft | 510 kts | 137° |
| 2026-05-05 11:02 | 62.91311 | 47.29167 | 36514 ft | 510 kts | 137° |
| 2026-05-05 11:02 | 62.86493 | 47.40603 | 36526 ft | 510 kts | 137° |
| 2026-05-05 11:03 | 62.81665 | 47.52004 | 36523 ft | 510 kts | 137° |
| 2026-05-05 11:03 | 62.76828 | 47.63368 | 36519 ft | 510 kts | 137° |
| 2026-05-05 11:04 | 62.71982 | 47.74692 | 36523 ft | 510 kts | 137° |
| 2026-05-05 11:04 | 62.67155 | 47.85918 | 36533 ft | 510 kts | 137° |
| 2026-05-05 11:05 | 62.62291 | 47.97167 | 36531 ft | 510 kts | 137° |
| 2026-05-05 11:05 | 62.57424 | 48.08369 | 36530 ft | 509 kts | 137° |
| 2026-05-05 11:06 | 62.52542 | 48.19547 | 36536 ft | 509 kts | 137° |
| 2026-05-05 11:06 | 62.47663 | 48.30661 | 36528 ft | 509 kts | 138° |
| 2026-05-05 11:07 | 62.42780 | 48.41730 | 36542 ft | 508 kts | 138° |
| 2026-05-05 11:07 | 62.37924 | 48.52683 | 36543 ft | 508 kts | 138° |
| 2026-05-05 11:08 | 62.33036 | 48.63659 | 36548 ft | 507 kts | 138° |
| 2026-05-05 11:08 | 62.28144 | 48.74589 | 36548 ft | 507 kts | 138° |
| 2026-05-05 11:09 | 62.23252 | 48.85497 | 36553 ft | 507 kts | 138° |
| 2026-05-05 11:09 | 62.18347 | 48.96394 | 36575 ft | 507 kts | 138° |
| 2026-05-05 11:10 | 62.13473 | 49.07171 | 36570 ft | 507 kts | 138° |
| 2026-05-05 11:10 | 62.08548 | 49.18006 | 36565 ft | 507 kts | 138° |
| 2026-05-05 11:11 | 62.03625 | 49.28813 | 36568 ft | 508 kts | 138° |
| 2026-05-05 11:11 | 61.98700 | 49.39589 | 36572 ft | 508 kts | 138° |
| 2026-05-05 11:12 | 61.93763 | 49.50340 | 36583 ft | 508 kts | 138° |
| 2026-05-05 11:12 | 61.88869 | 49.61048 | 36576 ft | 508 kts | 138° |
| 2026-05-05 11:13 | 61.84235 | 49.72375 | 36580 ft | 513 kts | 127° |
| 2026-05-05 11:13 | 61.80862 | 49.85736 | 36591 ft | 518 kts | 112° |
| 2026-05-05 11:14 | 61.78545 | 50.00192 | 36583 ft | 520 kts | 110° |
| 2026-05-05 11:14 | 61.76287 | 50.14696 | 36586 ft | 519 kts | 111° |
| 2026-05-05 11:15 | 61.73956 | 50.29109 | 36589 ft | 518 kts | 111° |
| 2026-05-05 11:15 | 61.71581 | 50.43458 | 36588 ft | 518 kts | 111° |
| 2026-05-05 11:16 | 61.69209 | 50.57688 | 36582 ft | 517 kts | 111° |
| 2026-05-05 11:16 | 61.66811 | 50.72006 | 36576 ft | 517 kts | 112° |
| 2026-05-05 11:17 | 61.64173 | 50.86050 | 36578 ft | 514 kts | 119° |
| 2026-05-05 11:17 | 61.60548 | 50.98949 | 36584 ft | 511 kts | 126° |
| 2026-05-05 11:18 | 61.56754 | 51.11462 | 36585 ft | 511 kts | 126° |
| 2026-05-05 11:18 | 61.52953 | 51.24098 | 36587 ft | 512 kts | 126° |
| 2026-05-05 11:19 | 61.49155 | 51.36778 | 36596 ft | 513 kts | 126° |
| 2026-05-05 11:19 | 61.45356 | 51.49416 | 36609 ft | 513 kts | 126° |
| 2026-05-05 11:20 | 61.41568 | 51.61935 | 36605 ft | 513 kts | 126° |
| 2026-05-05 11:20 | 61.37742 | 51.74505 | 36611 ft | 513 kts | 126° |
| 2026-05-05 11:21 | 61.33905 | 51.87042 | 36610 ft | 513 kts | 126° |
| 2026-05-05 11:21 | 61.30058 | 51.99549 | 36619 ft | 512 kts | 126° |
| 2026-05-05 11:22 | 61.26203 | 52.12017 | 36620 ft | 512 kts | 126° |
| 2026-05-05 11:22 | 61.22340 | 52.24450 | 36623 ft | 512 kts | 126° |
| 2026-05-05 11:23 | 61.18472 | 52.36852 | 36623 ft | 512 kts | 126° |
| 2026-05-05 11:23 | 61.14604 | 52.49197 | 36625 ft | 511 kts | 126° |
| 2026-05-05 11:24 | 61.10738 | 52.61465 | 36635 ft | 511 kts | 126° |
| 2026-05-05 11:24 | 61.06843 | 52.73760 | 36638 ft | 511 kts | 126° |
| 2026-05-05 11:25 | 61.02943 | 52.86005 | 36644 ft | 511 kts | 126° |
| 2026-05-05 11:25 | 60.99025 | 52.98242 | 36646 ft | 511 kts | 127° |
| 2026-05-05 11:26 | 60.95098 | 53.10444 | 36637 ft | 511 kts | 127° |
| 2026-05-05 11:26 | 60.91161 | 53.22612 | 36660 ft | 511 kts | 127° |
| 2026-05-05 11:27 | 60.87218 | 53.34738 | 36664 ft | 511 kts | 127° |
| 2026-05-05 11:27 | 60.83261 | 53.46846 | 36668 ft | 511 kts | 127° |
| 2026-05-05 11:28 | 60.79284 | 53.58941 | 36669 ft | 510 kts | 128° |
| 2026-05-05 11:28 | 60.74835 | 53.70149 | 36676 ft | 506 kts | 135° |
| 2026-05-05 11:29 | 60.70155 | 53.80671 | 36676 ft | 506 kts | 136° |
| 2026-05-05 11:29 | 60.65401 | 53.91392 | 36678 ft | 506 kts | 135° |
| 2026-05-05 11:30 | 60.60698 | 54.02061 | 36686 ft | 507 kts | 135° |
| 2026-05-05 11:30 | 60.55976 | 54.12747 | 36688 ft | 507 kts | 135° |
| 2026-05-05 11:31 | 60.51251 | 54.23379 | 36686 ft | 507 kts | 135° |
| 2026-05-05 11:31 | 60.46552 | 54.33901 | 36701 ft | 506 kts | 135° |
| 2026-05-05 11:32 | 60.41791 | 54.44426 | 36703 ft | 506 kts | 136° |
| 2026-05-05 11:32 | 60.37005 | 54.54912 | 36703 ft | 506 kts | 136° |
| 2026-05-05 11:33 | 60.32225 | 54.65350 | 36705 ft | 506 kts | 136° |
| 2026-05-05 11:33 | 60.27435 | 54.75774 | 36717 ft | 505 kts | 136° |
| 2026-05-05 11:34 | 60.22692 | 54.86053 | 36719 ft | 505 kts | 136° |
| 2026-05-05 11:34 | 60.17905 | 54.96377 | 36725 ft | 504 kts | 136° |
| 2026-05-05 11:35 | 60.13114 | 55.06663 | 36723 ft | 504 kts | 136° |
| 2026-05-05 11:35 | 60.08318 | 55.16914 | 36741 ft | 503 kts | 136° |
| 2026-05-05 11:36 | 60.03519 | 55.27131 | 36746 ft | 503 kts | 136° |
| 2026-05-05 11:36 | 59.99004 | 55.37842 | 36747 ft | 507 kts | 123° |
| 2026-05-05 11:37 | 59.96208 | 55.50775 | 36740 ft | 511 kts | 104° |
| 2026-05-05 11:37 | 59.94910 | 55.64731 | 36747 ft | 512 kts | 100° |
| 2026-05-05 11:38 | 59.93722 | 55.78645 | 36752 ft | 512 kts | 101° |
| 2026-05-05 11:38 | 59.92452 | 55.92626 | 36762 ft | 512 kts | 101° |
| 2026-05-05 11:39 | 59.91122 | 56.06583 | 36758 ft | 512 kts | 101° |
| 2026-05-05 11:39 | 59.89764 | 56.20550 | 36762 ft | 512 kts | 102° |
| 2026-05-05 11:40 | 59.88406 | 56.34390 | 36767 ft | 512 kts | 102° |
| 2026-05-05 11:40 | 59.87022 | 56.48378 | 36770 ft | 512 kts | 102° |
| 2026-05-05 11:41 | 59.85640 | 56.62183 | 36780 ft | 512 kts | 102° |
| 2026-05-05 11:41 | 59.84236 | 56.76060 | 36779 ft | 511 kts | 102° |
| 2026-05-05 11:42 | 59.82815 | 56.89941 | 36786 ft | 511 kts | 102° |
| 2026-05-05 11:42 | 59.81624 | 57.01453 | 36784 ft | 511 kts | 102° |
| 2026-05-05 11:43 | 59.79947 | 57.17502 | 36794 ft | 510 kts | 102° |
| 2026-05-05 11:43 | 59.78733 | 57.28983 | 36794 ft | 510 kts | 102° |
| 2026-05-05 11:44 | 59.77019 | 57.45031 | 36802 ft | 510 kts | 102° |
| 2026-05-05 11:44 | 59.75776 | 57.56549 | 36795 ft | 510 kts | 102° |
| 2026-05-05 11:45 | 59.74278 | 57.70295 | 36804 ft | 510 kts | 102° |
| 2026-05-05 11:45 | 59.72772 | 57.84003 | 36806 ft | 509 kts | 103° |
| 2026-05-05 11:46 | 59.71249 | 57.97722 | 36809 ft | 510 kts | 103° |
| 2026-05-05 11:46 | 59.69719 | 58.11430 | 36810 ft | 509 kts | 103° |
| 2026-05-05 11:47 | 59.68187 | 58.25033 | 36812 ft | 509 kts | 103° |
| 2026-05-05 11:47 | 59.66631 | 58.38711 | 36813 ft | 509 kts | 103° |
| 2026-05-05 11:48 | 59.64269 | 58.59204 | 36813 ft | 509 kts | 103° |
| 2026-05-05 11:48 | 59.62679 | 58.72832 | 36811 ft | 508 kts | 103° |
| 2026-05-05 11:49 | 59.61076 | 58.86442 | 36816 ft | 508 kts | 103° |
| 2026-05-05 11:49 | 59.59464 | 59.00011 | 36812 ft | 508 kts | 103° |
| 2026-05-05 11:50 | 59.57528 | 59.13292 | 36808 ft | 506 kts | 112° |
| 2026-05-05 11:50 | 59.54701 | 59.26025 | 36809 ft | 505 kts | 115° |
| 2026-05-05 11:51 | 59.51813 | 59.38655 | 36811 ft | 505 kts | 115° |
| 2026-05-05 11:51 | 59.48948 | 59.51299 | 36804 ft | 505 kts | 115° |
| 2026-05-05 11:52 | 59.46098 | 59.63929 | 36810 ft | 505 kts | 115° |
| 2026-05-05 11:52 | 59.43255 | 59.76481 | 36809 ft | 505 kts | 115° |
| 2026-05-05 11:53 | 59.40384 | 59.89072 | 36814 ft | 505 kts | 115° |
| 2026-05-05 11:53 | 59.37498 | 60.01644 | 36817 ft | 505 kts | 115° |
| 2026-05-05 11:54 | 59.34599 | 60.14200 | 36820 ft | 505 kts | 115° |
| 2026-05-05 11:54 | 59.31706 | 60.26657 | 36822 ft | 506 kts | 115° |
| 2026-05-05 11:55 | 59.28764 | 60.39251 | 36826 ft | 506 kts | 115° |
| 2026-05-05 11:55 | 59.25842 | 60.51684 | 36824 ft | 506 kts | 115° |
| 2026-05-05 11:56 | 59.22893 | 60.64163 | 36826 ft | 506 kts | 115° |
| 2026-05-05 11:56 | 59.19922 | 60.76660 | 36830 ft | 506 kts | 115° |
| 2026-05-05 11:57 | 59.16947 | 60.89107 | 36832 ft | 507 kts | 115° |
| 2026-05-05 11:57 | 59.13956 | 61.01549 | 36837 ft | 507 kts | 115° |
| 2026-05-05 11:58 | 59.10951 | 61.13976 | 36840 ft | 507 kts | 115° |
| 2026-05-05 11:58 | 59.07936 | 61.26373 | 36842 ft | 507 kts | 116° |
| 2026-05-05 11:59 | 59.04918 | 61.38719 | 36843 ft | 507 kts | 116° |
| 2026-05-05 11:59 | 59.01884 | 61.51068 | 36848 ft | 507 kts | 116° |
| 2026-05-05 12:00 | 58.98617 | 61.63126 | 36848 ft | 506 kts | 123° |
| 2026-05-05 12:00 | 58.94396 | 61.74036 | 36852 ft | 504 kts | 129° |
| 2026-05-05 12:01 | 58.89995 | 61.84593 | 36849 ft | 504 kts | 129° |
| 2026-05-05 12:01 | 58.85605 | 61.95202 | 36851 ft | 504 kts | 129° |
| 2026-05-05 12:02 | 58.81240 | 62.05798 | 36852 ft | 504 kts | 129° |
| 2026-05-05 12:02 | 58.76875 | 62.16370 | 36854 ft | 503 kts | 129° |
| 2026-05-05 12:03 | 58.72507 | 62.26890 | 36855 ft | 503 kts | 129° |
| 2026-05-05 12:03 | 58.68152 | 62.37330 | 36851 ft | 503 kts | 129° |
| 2026-05-05 12:04 | 58.63765 | 62.47798 | 36855 ft | 503 kts | 129° |
| 2026-05-05 12:04 | 58.59372 | 62.58238 | 36852 ft | 502 kts | 129° |
| 2026-05-05 12:05 | 58.54973 | 62.68650 | 36862 ft | 502 kts | 130° |
| 2026-05-05 12:05 | 58.50394 | 62.78729 | 36867 ft | 501 kts | 133° |
| 2026-05-05 12:06 | 58.45657 | 62.88501 | 36850 ft | 501 kts | 134° |
| 2026-05-05 12:06 | 58.40920 | 62.98240 | 36861 ft | 501 kts | 134° |
| 2026-05-05 12:07 | 58.36212 | 63.07946 | 36866 ft | 501 kts | 134° |
| 2026-05-05 12:07 | 58.31487 | 63.17670 | 36853 ft | 501 kts | 134° |
| 2026-05-05 12:08 | 58.26748 | 63.27380 | 36867 ft | 501 kts | 134° |
| 2026-05-05 12:08 | 58.21993 | 63.37078 | 36865 ft | 501 kts | 134° |
| 2026-05-05 12:09 | 58.17244 | 63.46722 | 36864 ft | 501 kts | 134° |
| 2026-05-05 12:09 | 58.12485 | 63.56354 | 36867 ft | 501 kts | 134° |
| 2026-05-05 12:10 | 58.07722 | 63.65877 | 36868 ft | 500 kts | 135° |
| 2026-05-05 12:10 | 58.02841 | 63.75353 | 36869 ft | 500 kts | 136° |
| 2026-05-05 12:11 | 57.98005 | 63.84695 | 36868 ft | 500 kts | 136° |
| 2026-05-05 12:11 | 57.93143 | 63.94091 | 36866 ft | 501 kts | 136° |
| 2026-05-05 12:12 | 57.88277 | 64.03470 | 36872 ft | 501 kts | 136° |
| 2026-05-05 12:12 | 57.83405 | 64.12818 | 36872 ft | 501 kts | 136° |
| 2026-05-05 12:13 | 57.78453 | 64.22038 | 36872 ft | 500 kts | 137° |
| 2026-05-05 12:13 | 57.73474 | 64.31036 | 36874 ft | 500 kts | 137° |
| 2026-05-05 12:14 | 57.68463 | 64.40088 | 36873 ft | 501 kts | 137° |
| 2026-05-05 12:14 | 57.63448 | 64.49156 | 36874 ft | 501 kts | 137° |
| 2026-05-05 12:15 | 57.58438 | 64.58187 | 36872 ft | 501 kts | 137° |
| 2026-05-05 12:15 | 57.53452 | 64.67139 | 36875 ft | 501 kts | 138° |
| 2026-05-05 12:16 | 57.48428 | 64.76117 | 36876 ft | 500 kts | 138° |
| 2026-05-05 12:16 | 57.43389 | 64.85047 | 36879 ft | 500 kts | 138° |
| 2026-05-05 12:17 | 57.38345 | 64.93950 | 36879 ft | 500 kts | 138° |
| 2026-05-05 12:17 | 57.33297 | 65.02832 | 36886 ft | 500 kts | 138° |
| 2026-05-05 12:18 | 57.28242 | 65.11695 | 36884 ft | 500 kts | 139° |
| 2026-05-05 12:18 | 57.23180 | 65.20537 | 36875 ft | 501 kts | 139° |
| 2026-05-05 12:19 | 57.18113 | 65.29354 | 36890 ft | 500 kts | 139° |
| 2026-05-05 12:19 | 57.13015 | 65.37967 | 36882 ft | 500 kts | 141° |
| 2026-05-05 12:20 | 57.07780 | 65.46408 | 36883 ft | 500 kts | 141° |
| 2026-05-05 12:20 | 57.02545 | 65.54810 | 36886 ft | 500 kts | 141° |
| 2026-05-05 12:21 | 56.97301 | 65.63254 | 36889 ft | 501 kts | 141° |
| 2026-05-05 12:21 | 56.92071 | 65.71670 | 36887 ft | 501 kts | 141° |
| 2026-05-05 12:22 | 56.86828 | 65.80075 | 36889 ft | 501 kts | 141° |
| 2026-05-05 12:22 | 56.81568 | 65.88473 | 36895 ft | 501 kts | 141° |
| 2026-05-05 12:23 | 56.76351 | 65.96767 | 36894 ft | 501 kts | 142° |
| 2026-05-05 12:23 | 56.71083 | 66.05111 | 36896 ft | 502 kts | 142° |
| 2026-05-05 12:24 | 56.65806 | 66.13436 | 36895 ft | 502 kts | 142° |
| 2026-05-05 12:24 | 56.60516 | 66.21751 | 36899 ft | 502 kts | 142° |
| 2026-05-05 12:25 | 56.55231 | 66.30027 | 36896 ft | 502 kts | 142° |
| 2026-05-05 12:25 | 56.49936 | 66.38287 | 36895 ft | 502 kts | 142° |
| 2026-05-05 12:26 | 56.44671 | 66.46472 | 36901 ft | 502 kts | 142° |
| 2026-05-05 12:26 | 56.39501 | 66.54962 | 36899 ft | 504 kts | 136° |
| 2026-05-05 12:27 | 56.34780 | 66.64337 | 36892 ft | 505 kts | 135° |
| 2026-05-05 12:27 | 56.30077 | 66.73733 | 36918 ft | 505 kts | 135° |
| 2026-05-05 12:28 | 56.25339 | 66.83065 | 36907 ft | 505 kts | 136° |
| 2026-05-05 12:28 | 56.20579 | 66.92356 | 36906 ft | 505 kts | 136° |
| 2026-05-05 12:29 | 56.15846 | 67.01559 | 36902 ft | 505 kts | 136° |
| 2026-05-05 12:29 | 56.11076 | 67.10802 | 36899 ft | 505 kts | 136° |
| 2026-05-05 12:30 | 56.06300 | 67.20028 | 36898 ft | 504 kts | 136° |
| 2026-05-05 12:30 | 56.01511 | 67.29200 | 36891 ft | 503 kts | 138° |
| 2026-05-05 12:31 | 55.96361 | 67.37558 | 36902 ft | 500 kts | 143° |
| 2026-05-05 12:31 | 55.91095 | 67.45677 | 36892 ft | 500 kts | 143° |
| 2026-05-05 12:32 | 55.86724 | 67.52437 | 36890 ft | 502 kts | 143° |
| 2026-05-05 12:32 | 55.80599 | 67.61951 | 36874 ft | 502 kts | 143° |
| 2026-05-05 12:33 | 55.76198 | 67.68777 | 36880 ft | 501 kts | 143° |
| 2026-05-05 12:33 | 55.70936 | 67.76907 | 36868 ft | 501 kts | 143° |
| 2026-05-05 12:34 | 55.65690 | 67.84978 | 36862 ft | 499 kts | 143° |
| 2026-05-05 12:34 | 55.60459 | 67.92996 | 36867 ft | 498 kts | 144° |
| 2026-05-05 12:35 | 55.55223 | 68.00995 | 36878 ft | 498 kts | 144° |
| 2026-05-05 12:35 | 55.49957 | 68.08941 | 36870 ft | 497 kts | 144° |
| 2026-05-05 12:36 | 55.44669 | 68.16822 | 36857 ft | 497 kts | 145° |
| 2026-05-05 12:36 | 55.39370 | 68.24704 | 36851 ft | 498 kts | 145° |
| 2026-05-05 12:37 | 55.34084 | 68.32552 | 36843 ft | 498 kts | 145° |
| 2026-05-05 12:37 | 55.28810 | 68.40356 | 36840 ft | 498 kts | 145° |
| 2026-05-05 12:38 | 55.23506 | 68.48180 | 36837 ft | 498 kts | 145° |
| 2026-05-05 12:38 | 55.18259 | 68.56121 | 36830 ft | 500 kts | 142° |
| 2026-05-05 12:39 | 55.13215 | 68.64541 | 36833 ft | 501 kts | 141° |
| 2026-05-05 12:39 | 55.08190 | 68.72985 | 36818 ft | 501 kts | 142° |
| 2026-05-05 12:40 | 55.03146 | 68.81371 | 36818 ft | 500 kts | 142° |
| 2026-05-05 12:40 | 54.98120 | 68.89664 | 36817 ft | 499 kts | 142° |
| 2026-05-05 12:41 | 54.93070 | 68.97966 | 36819 ft | 499 kts | 142° |
| 2026-05-05 12:41 | 54.88023 | 69.06239 | 36824 ft | 498 kts | 142° |
| 2026-05-05 12:42 | 54.82978 | 69.14481 | 36830 ft | 497 kts | 142° |
| 2026-05-05 12:42 | 54.80320 | 69.18230 | 36818 ft | 489 kts | 153° |
| 2026-05-05 12:42 | 54.77358 | 69.21004 | 36827 ft | 479 kts | 163° |
| 2026-05-05 12:43 | 54.71097 | 69.23942 | 36832 ft | 464 kts | 178° |
| 2026-05-05 12:43 | 54.64686 | 69.25376 | 36819 ft | 465 kts | 178° |
| 2026-05-05 12:44 | 54.58262 | 69.26839 | 36824 ft | 466 kts | 178° |
| 2026-05-05 12:44 | 54.51831 | 69.28377 | 36821 ft | 467 kts | 178° |
| 2026-05-05 12:45 | 54.45392 | 69.29943 | 36827 ft | 467 kts | 178° |
| 2026-05-05 12:45 | 54.38978 | 69.31499 | 36842 ft | 468 kts | 178° |
| 2026-05-05 12:46 | 54.32525 | 69.33056 | 36839 ft | 468 kts | 178° |
| 2026-05-05 12:46 | 54.26101 | 69.34601 | 36821 ft | 468 kts | 178° |
| 2026-05-05 12:47 | 54.19645 | 69.36148 | 36836 ft | 468 kts | 178° |
| 2026-05-05 12:47 | 54.13199 | 69.37688 | 36839 ft | 467 kts | 177° |
| 2026-05-05 12:48 | 54.06771 | 69.39219 | 36842 ft | 467 kts | 177° |
| 2026-05-05 12:48 | 54.00339 | 69.40746 | 36849 ft | 466 kts | 177° |
| 2026-05-05 12:49 | 53.93944 | 69.42659 | 36853 ft | 468 kts | 174° |
| 2026-05-05 12:49 | 53.87595 | 69.44831 | 36859 ft | 467 kts | 174° |
| 2026-05-05 12:50 | 53.81219 | 69.46961 | 36866 ft | 467 kts | 174° |
| 2026-05-05 12:50 | 53.74839 | 69.49029 | 36873 ft | 467 kts | 174° |
| 2026-05-05 12:51 | 53.68469 | 69.51069 | 36874 ft | 467 kts | 174° |
| 2026-05-05 12:51 | 53.62088 | 69.53110 | 36879 ft | 467 kts | 174° |
| 2026-05-05 12:52 | 53.55731 | 69.55140 | 36879 ft | 467 kts | 174° |
| 2026-05-05 12:52 | 53.49332 | 69.57177 | 36881 ft | 467 kts | 174° |
| 2026-05-05 12:53 | 53.43017 | 69.59187 | 36790 ft | 454 kts | 174° |
| 2026-05-05 12:53 | 53.36951 | 69.61112 | 36626 ft | 434 kts | 174° |
| 2026-05-05 12:54 | 53.31157 | 69.63063 | 36470 ft | 417 kts | 172° |
| 2026-05-05 12:54 | 53.28368 | 69.64120 | 36392 ft | 408 kts | 172° |
| 2026-05-05 12:55 | 53.22980 | 69.66199 | 36231 ft | 390 kts | 172° |
| 2026-05-05 12:55 | 53.20365 | 69.67199 | 36066 ft | 383 kts | 172° |
| 2026-05-05 12:55 | 53.17777 | 69.68179 | 35840 ft | 377 kts | 173° |
| 2026-05-05 12:55 | 53.15230 | 69.69134 | 35550 ft | 374 kts | 173° |
| 2026-05-05 12:56 | 53.12682 | 69.70084 | 35224 ft | 372 kts | 173° |
| 2026-05-05 12:56 | 53.10202 | 69.71005 | 34922 ft | 369 kts | 173° |
| 2026-05-05 12:56 | 53.07702 | 69.71933 | 34624 ft | 366 kts | 173° |
| 2026-05-05 12:56 | 53.05237 | 69.72847 | 34354 ft | 363 kts | 173° |
| 2026-05-05 12:57 | 53.02749 | 69.73770 | 34067 ft | 360 kts | 173° |
| 2026-05-05 12:57 | 53.00314 | 69.74671 | 33756 ft | 357 kts | 173° |
| 2026-05-05 12:57 | 52.97891 | 69.75566 | 33399 ft | 355 kts | 173° |
| 2026-05-05 12:57 | 52.95525 | 69.76440 | 33054 ft | 354 kts | 173° |
| 2026-05-05 12:58 | 52.93111 | 69.77330 | 32687 ft | 353 kts | 173° |
| 2026-05-05 12:58 | 52.90724 | 69.78209 | 32338 ft | 351 kts | 173° |
| 2026-05-05 12:58 | 52.88346 | 69.79084 | 31997 ft | 349 kts | 173° |
| 2026-05-05 12:58 | 52.86004 | 69.79949 | 31489 ft | 342 kts | 174° |
| 2026-05-05 12:59 | 52.83673 | 69.80805 | 30611 ft | 344 kts | 174° |
| 2026-05-05 12:59 | 52.81317 | 69.81664 | 29638 ft | 349 kts | 174° |
| 2026-05-05 12:59 | 52.78940 | 69.82532 | 28764 ft | 348 kts | 174° |
| 2026-05-05 13:00 | 52.74319 | 69.84233 | 27637 ft | 331 kts | 174° |
| 2026-05-05 13:00 | 52.72096 | 69.85051 | 27049 ft | 324 kts | 175° |
| 2026-05-05 13:01 | 52.65605 | 69.87416 | 25088 ft | 316 kts | 175° |
| 2026-05-05 13:01 | 52.63455 | 69.88196 | 24406 ft | 315 kts | 175° |
| 2026-05-05 13:01 | 52.61303 | 69.88974 | 23588 ft | 318 kts | 175° |
| 2026-05-05 13:01 | 52.59114 | 69.89760 | 22260 ft | 329 kts | 174° |
| 2026-05-05 13:02 | 52.56815 | 69.90578 | 20572 ft | 347 kts | 174° |
| 2026-05-05 13:02 | 52.54370 | 69.91446 | 18667 ft | 370 kts | 173° |
| 2026-05-05 13:02 | 52.51825 | 69.92356 | 16664 ft | 386 kts | 173° |
| 2026-05-05 13:02 | 52.49171 | 69.93318 | 15026 ft | 390 kts | 173° |
| 2026-05-05 13:03 | 52.46542 | 69.94282 | 13982 ft | 380 kts | 173° |
| 2026-05-05 13:03 | 52.44018 | 69.95214 | 13211 ft | 363 kts | 173° |
| 2026-05-05 13:03 | 52.41597 | 69.96103 | 12445 ft | 349 kts | 173° |
| 2026-05-05 13:03 | 52.39260 | 69.96954 | 11586 ft | 339 kts | 173° |
| 2026-05-05 13:04 | 52.36979 | 69.97775 | 10688 ft | 334 kts | 173° |
| 2026-05-05 13:04 | 52.34721 | 69.98583 | 9696 ft | 331 kts | 173° |
| 2026-05-05 13:04 | 52.32485 | 69.99380 | 8506 ft | 333 kts | 172° |
| 2026-05-05 13:04 | 52.30255 | 70.00176 | 7647 ft | 323 kts | 172° |
| 2026-05-05 13:05 | 52.28122 | 70.00945 | 7176 ft | 301 kts | 172° |
| 2026-05-05 13:05 | 52.26173 | 70.01652 | 6970 ft | 274 kts | 173° |
| 2026-05-05 13:05 | 52.24387 | 70.02300 | 6786 ft | 250 kts | 173° |
| 2026-05-05 13:05 | 52.22756 | 70.02888 | 6600 ft | 229 kts | 173° |
| 2026-05-05 13:06 | 52.21255 | 70.03425 | 6254 ft | 218 kts | 174° |
| 2026-05-05 13:06 | 52.19789 | 70.03943 | 5746 ft | 213 kts | 174° |
| 2026-05-05 13:06 | 52.18336 | 70.04454 | 5174 ft | 213 kts | 174° |
| 2026-05-05 13:06 | 52.16907 | 70.04959 | 4853 ft | 205 kts | 174° |
| 2026-05-05 13:07 | 52.15420 | 70.05472 | 4957 ft | 233 kts | 173° |
| 2026-05-05 13:07 | 52.13890 | 70.06014 | 4880 ft | 216 kts | 173° |
| 2026-05-05 13:07 | 52.12446 | 70.06531 | 4890 ft | 207 kts | 174° |
| 2026-05-05 13:07 | 52.11045 | 70.07027 | 4922 ft | 207 kts | 174° |
| 2026-05-05 13:08 | 52.09634 | 70.07522 | 4937 ft | 214 kts | 174° |
| 2026-05-05 13:08 | 52.08172 | 70.08036 | 4916 ft | 214 kts | 174° |
| 2026-05-05 13:08 | 52.06720 | 70.08550 | 4922 ft | 215 kts | 174° |
| 2026-05-05 13:08 | 52.05154 | 70.09091 | 4969 ft | 245 kts | 173° |
| 2026-05-05 13:09 | 52.03451 | 70.09685 | 4934 ft | 252 kts | 173° |
| 2026-05-05 13:09 | 52.01733 | 70.10293 | 4908 ft | 253 kts | 173° |
| 2026-05-05 13:09 | 52.00012 | 70.10905 | 4918 ft | 253 kts | 173° |
| 2026-05-05 13:09 | 51.98288 | 70.11518 | 4928 ft | 253 kts | 173° |
| 2026-05-05 13:10 | 51.96572 | 70.12125 | 4966 ft | 252 kts | 173° |
| 2026-05-05 13:10 | 51.94855 | 70.12732 | 5017 ft | 253 kts | 173° |
| 2026-05-05 13:10 | 51.93146 | 70.13336 | 5015 ft | 252 kts | 173° |
| 2026-05-05 13:10 | 51.91477 | 70.13929 | 5005 ft | 240 kts | 173° |
| 2026-05-05 13:11 | 51.89891 | 70.14495 | 4986 ft | 225 kts | 173° |
| 2026-05-05 13:11 | 51.88410 | 70.15020 | 5013 ft | 219 kts | 174° |
| 2026-05-05 13:11 | 51.86897 | 70.15550 | 5017 ft | 219 kts | 174° |
| 2026-05-05 13:11 | 51.85408 | 70.16069 | 5021 ft | 219 kts | 174° |
| 2026-05-05 13:12 | 51.83912 | 70.16592 | 5023 ft | 219 kts | 174° |
| 2026-05-05 13:12 | 51.82424 | 70.17112 | 5034 ft | 219 kts | 174° |
| 2026-05-05 13:12 | 51.80952 | 70.17626 | 5030 ft | 219 kts | 174° |
| 2026-05-05 13:12 | 51.79459 | 70.18148 | 4979 ft | 220 kts | 174° |
| 2026-05-05 13:13 | 51.77961 | 70.18671 | 4940 ft | 219 kts | 174° |
| 2026-05-05 13:13 | 51.76479 | 70.19189 | 4932 ft | 217 kts | 174° |
| 2026-05-05 13:13 | 51.74996 | 70.19707 | 4934 ft | 218 kts | 174° |
| 2026-05-05 13:13 | 51.73429 | 70.20244 | 4970 ft | 248 kts | 173° |
| 2026-05-05 13:14 | 51.71641 | 70.20851 | 4968 ft | 270 kts | 173° |
| 2026-05-05 13:14 | 51.69813 | 70.21486 | 4943 ft | 273 kts | 172° |
| 2026-05-05 13:14 | 51.67933 | 70.22145 | 4931 ft | 273 kts | 172° |
| 2026-05-05 13:14 | 51.66076 | 70.22796 | 4941 ft | 273 kts | 172° |
| 2026-05-05 13:15 | 51.64240 | 70.23438 | 4943 ft | 273 kts | 172° |
| 2026-05-05 13:15 | 51.62381 | 70.24086 | 4949 ft | 280 kts | 172° |
| 2026-05-05 13:15 | 51.60334 | 70.24784 | 4975 ft | 320 kts | 172° |
| 2026-05-05 13:15 | 51.58097 | 70.25549 | 4955 ft | 334 kts | 172° |
| 2026-05-05 13:16 | 51.55864 | 70.26331 | 4936 ft | 320 kts | 172° |
| 2026-05-05 13:16 | 51.53736 | 70.27081 | 4928 ft | 304 kts | 172° |
| 2026-05-05 13:16 | 51.51715 | 70.27793 | 4923 ft | 289 kts | 172° |
| 2026-05-05 13:16 | 51.49816 | 70.28458 | 4921 ft | 275 kts | 173° |
| 2026-05-05 13:17 | 51.47994 | 70.29094 | 4923 ft | 261 kts | 173° |
| 2026-05-05 13:17 | 51.46262 | 70.29694 | 4922 ft | 247 kts | 173° |
| 2026-05-05 13:17 | 51.44637 | 70.30258 | 4922 ft | 232 kts | 173° |
| 2026-05-05 13:17 | 51.43105 | 70.30789 | 4916 ft | 217 kts | 174° |
| 2026-05-05 13:18 | 51.41682 | 70.31283 | 4909 ft | 200 kts | 174° |
| 2026-05-05 13:18 | 51.40327 | 70.31744 | 4954 ft | 202 kts | 175° |
| 2026-05-05 13:18 | 51.38968 | 70.32206 | 4937 ft | 198 kts | 175° |
| 2026-05-05 13:18 | 51.37645 | 70.32660 | 4933 ft | 192 kts | 175° |
| 2026-05-05 13:19 | 51.36339 | 70.33106 | 4938 ft | 192 kts | 175° |
| 2026-05-05 13:19 | 51.35023 | 70.33552 | 4959 ft | 195 kts | 174° |
| 2026-05-05 13:19 | 51.33703 | 70.34002 | 4983 ft | 192 kts | 174° |
| 2026-05-05 13:19 | 51.32371 | 70.34457 | 4647 ft | 199 kts | 174° |
| 2026-05-05 13:20 | 51.31013 | 70.34917 | 4260 ft | 202 kts | 174° |
| 2026-05-05 13:20 | 51.29651 | 70.35381 | 3999 ft | 197 kts | 174° |
| 2026-05-05 13:20 | 51.28304 | 70.35841 | 4012 ft | 198 kts | 174° |
| 2026-05-05 13:20 | 51.26971 | 70.36296 | 3960 ft | 201 kts | 174° |
| 2026-05-05 13:21 | 51.25515 | 70.36782 | 4003 ft | 218 kts | 173° |
| 2026-05-05 13:21 | 51.24033 | 70.37284 | 3976 ft | 232 kts | 173° |
| 2026-05-05 13:21 | 51.22338 | 70.37855 | 3987 ft | 254 kts | 173° |
| 2026-05-05 13:21 | 51.20616 | 70.38440 | 3964 ft | 257 kts | 172° |
| 2026-05-05 13:22 | 51.18863 | 70.39041 | 3961 ft | 258 kts | 172° |
| 2026-05-05 13:22 | 51.17113 | 70.39641 | 3962 ft | 257 kts | 172° |
| 2026-05-05 13:22 | 51.15375 | 70.40235 | 3939 ft | 251 kts | 172° |
| 2026-05-05 13:22 | 51.13710 | 70.40809 | 3941 ft | 237 kts | 173° |
| 2026-05-05 13:23 | 51.12151 | 70.41346 | 3945 ft | 223 kts | 173° |
| 2026-05-05 13:23 | 51.10655 | 70.41860 | 3932 ft | 211 kts | 173° |
| 2026-05-05 13:23 | 51.09288 | 70.42329 | 3920 ft | 194 kts | 174° |
| 2026-05-05 13:23 | 51.07982 | 70.42771 | 3943 ft | 193 kts | 174° |
| 2026-05-05 13:24 | 51.07103 | 70.43065 | 3982 ft | 196 kts | 174° |
| 2026-05-05 13:24 | 51.05769 | 70.43513 | 3967 ft | 196 kts | 174° |
| 2026-05-05 13:24 | 51.04438 | 70.43962 | 3945 ft | 195 kts | 174° |
| 2026-05-05 13:24 | 51.03102 | 70.44411 | 3770 ft | 196 kts | 173° |
| 2026-05-05 13:25 | 51.01773 | 70.44860 | 3701 ft | 197 kts | 173° |
| 2026-05-05 13:25 | 51.00427 | 70.45312 | 3749 ft | 196 kts | 173° |
| 2026-05-05 13:25 | 50.99106 | 70.45760 | 3685 ft | 191 kts | 173° |
| 2026-05-05 13:25 | 50.97829 | 70.46195 | 3671 ft | 186 kts | 174° |
| 2026-05-05 13:26 | 50.96543 | 70.46626 | 3560 ft | 192 kts | 174° |
| 2026-05-05 13:26 | 50.95221 | 70.47067 | 3316 ft | 195 kts | 173° |
| 2026-05-05 13:26 | 50.93893 | 70.47513 | 3075 ft | 193 kts | 173° |
| 2026-05-05 13:26 | 50.92636 | 70.47940 | 3015 ft | 183 kts | 174° |
| 2026-05-05 13:27 | 50.91358 | 70.48371 | 2991 ft | 188 kts | 173° |
| 2026-05-05 13:27 | 50.90063 | 70.48804 | 2986 ft | 191 kts | 173° |
| 2026-05-05 13:27 | 50.88779 | 70.49234 | 2975 ft | 190 kts | 173° |
| 2026-05-05 13:27 | 50.87483 | 70.49669 | 2972 ft | 189 kts | 173° |
| 2026-05-05 13:28 | 50.86201 | 70.50099 | 2972 ft | 188 kts | 173° |
| 2026-05-05 13:28 | 50.84923 | 70.50528 | 2975 ft | 188 kts | 173° |
| 2026-05-05 13:28 | 50.83644 | 70.50956 | 2976 ft | 187 kts | 173° |
| 2026-05-05 13:28 | 50.82362 | 70.51386 | 2986 ft | 187 kts | 173° |
| 2026-05-05 13:29 | 50.81102 | 70.51808 | 2990 ft | 187 kts | 173° |
| 2026-05-05 13:29 | 50.79827 | 70.52235 | 2983 ft | 187 kts | 173° |
| 2026-05-05 13:29 | 50.78558 | 70.52661 | 2979 ft | 187 kts | 173° |
| 2026-05-05 13:29 | 50.77279 | 70.53089 | 2973 ft | 186 kts | 173° |
| 2026-05-05 13:30 | 50.76023 | 70.53509 | 2975 ft | 185 kts | 173° |
| 2026-05-05 13:30 | 50.74937 | 70.53871 | 2977 ft | 185 kts | 174° |
| 2026-05-05 13:30 | 50.73678 | 70.54293 | 2972 ft | 185 kts | 174° |
| 2026-05-05 13:30 | 50.72432 | 70.54710 | 2979 ft | 179 kts | 174° |
| 2026-05-05 13:31 | 50.71246 | 70.55108 | 2990 ft | 176 kts | 174° |
| 2026-05-05 13:31 | 50.70041 | 70.55506 | 2994 ft | 177 kts | 174° |
| 2026-05-05 13:31 | 50.68833 | 70.55907 | 2984 ft | 177 kts | 174° |
| 2026-05-05 13:31 | 50.67624 | 70.56309 | 2985 ft | 177 kts | 174° |
| 2026-05-05 13:32 | 50.66416 | 70.56714 | 2991 ft | 178 kts | 173° |
| 2026-05-05 13:32 | 50.65212 | 70.57115 | 2986 ft | 180 kts | 173° |
| 2026-05-05 13:32 | 50.63966 | 70.57527 | 2985 ft | 182 kts | 173° |
| 2026-05-05 13:32 | 50.62736 | 70.57935 | 2976 ft | 182 kts | 173° |
| 2026-05-05 13:33 | 50.61491 | 70.58347 | 2986 ft | 183 kts | 172° |
| 2026-05-05 13:33 | 50.60246 | 70.58761 | 2990 ft | 183 kts | 172° |
| 2026-05-05 13:33 | 50.59002 | 70.59173 | 2982 ft | 182 kts | 173° |
| 2026-05-05 13:33 | 50.57764 | 70.59584 | 2992 ft | 182 kts | 172° |
| 2026-05-05 13:34 | 50.56518 | 70.59998 | 2987 ft | 182 kts | 173° |
| 2026-05-05 13:34 | 50.55283 | 70.60408 | 2985 ft | 181 kts | 173° |
| 2026-05-05 13:34 | 50.54048 | 70.60816 | 2987 ft | 181 kts | 172° |
| 2026-05-05 13:34 | 50.52814 | 70.61223 | 3000 ft | 182 kts | 172° |
| 2026-05-05 13:35 | 50.51571 | 70.61632 | 3007 ft | 183 kts | 173° |
| 2026-05-05 13:35 | 50.50323 | 70.62046 | 3001 ft | 184 kts | 173° |
| 2026-05-05 13:35 | 50.49102 | 70.62450 | 2997 ft | 182 kts | 174° |
| 2026-05-05 13:35 | 50.47873 | 70.62858 | 2986 ft | 179 kts | 174° |
| 2026-05-05 13:36 | 50.46661 | 70.63259 | 2986 ft | 177 kts | 174° |
| 2026-05-05 13:36 | 50.45458 | 70.63657 | 2996 ft | 176 kts | 174° |
| 2026-05-05 13:36 | 50.44260 | 70.64051 | 2990 ft | 175 kts | 174° |
| 2026-05-05 13:36 | 50.43131 | 70.64714 | 2969 ft | 180 kts | 143° |
| 2026-05-05 13:37 | 50.42595 | 70.66588 | 3015 ft | 207 kts | 94° |
| 2026-05-05 13:37 | 50.43090 | 70.68725 | 3006 ft | 215 kts | 49° |
| 2026-05-05 13:37 | 50.44077 | 70.70453 | 3004 ft | 212 kts | 59° |
| 2026-05-05 13:37 | 50.44728 | 70.72509 | 3012 ft | 211 kts | 66° |
| 2026-05-05 13:38 | 50.45453 | 70.74532 | 3007 ft | 215 kts | 59° |
| 2026-05-05 13:38 | 50.46284 | 70.76409 | 3004 ft | 201 kts | 55° |
| 2026-05-05 13:38 | 50.47127 | 70.78055 | 2955 ft | 184 kts | 50° |
| 2026-05-05 13:38 | 50.47957 | 70.79493 | 2954 ft | 175 kts | 41° |
| 2026-05-05 13:39 | 50.48969 | 70.80569 | 3023 ft | 179 kts | 32° |
| 2026-05-05 13:39 | 50.50042 | 70.81632 | 3011 ft | 185 kts | 31° |
| 2026-05-05 13:39 | 50.51130 | 70.82717 | 3008 ft | 183 kts | 32° |
| 2026-05-05 13:39 | 50.52187 | 70.83767 | 2997 ft | 187 kts | 32° |